Accueil
METAR-TAF:

METAR-TAF

Aéroports :

Dewar Lakes, Nunavut, Canada

latitude: 68-39N, longitude: 071-10W, altitude: 518 m

Observation

Le bulletin a été fait il y a 28 minutes, à 18:00 UTC
Vent 3 kt de sud, variant entre sud-est et sud
Température -15°C
Humidité 92%
Pression 1014 hPa

METAR: CWUW 291800Z AUTO 18003KT 130V190 ////SM NCD M15/M16 A2993

Heure: 14:28 (18:28 UTC)


TAF: absent

Observations et prévisions météorologiques de plus de 4000 aéroports (messages METAR et TAF).

Les stations disponibles sont représentées par des disques jaunes et rouges sur la carte.

Passer la souris dessus pour voir le nom de la station.

Cliquer dessus pour voir les observations et prévisions météorologiques.

Pour changer de carte: cliquez sur les boutons verts avec une croix noire pour zoomer, sur le bouton vert avec un tiret pour effectuer un zoom arrière, ou sur les flèches vertes pour les cartes adjacentes.


METAR-TAF: